Time;durP1;ratioP1;P1;durP2;ratioP2;P2;SDS_P1;SDS_P2;PMS_P1;PMS_P2;Temp;Humidity;BMP_temperature;BMP_pressure;BME280_temperature;BME280_humidity;BME280_pressure;Samples;Min_cycle;Max_cycle;Signal;HPM_P1;HPM_P2
2021/06/23 00:02:08;;;;;;;15.50;7.37;;;;;;;29.46;46.74;99211.69;4471256;32;34567;-65
2021/06/23 00:04:36;;;;;;;12.40;7.10;;;;;;;29.45;46.80;99211.97;4482833;32;33957;-65
2021/06/23 00:07:03;;;;;;;12.82;7.87;;;;;;;29.45;46.67;99210.03;4484209;32;33369;-65
2021/06/23 00:09:31;;;;;;;12.55;6.90;;;;;;;29.46;46.50;99217.19;4484522;32;34462;-65
2021/06/23 00:11:59;;;;;;;10.60;6.82;;;;;;;29.47;46.39;99209.75;4484224;32;33873;-64
2021/06/23 00:14:26;;;;;;;14.93;7.85;;;;;;;29.48;46.31;99203.19;4482923;32;34068;-64
2021/06/23 00:16:54;;;;;;;15.27;7.82;;;;;;;29.47;46.45;99218.00;4484239;32;34205;-64
2021/06/23 00:19:22;;;;;;;14.85;7.25;;;;;;;29.45;46.89;99217.47;4484004;32;33088;-65
2021/06/23 00:21:50;;;;;;;12.40;7.00;;;;;;;29.43;46.92;99215.00;4482951;32;33954;-66
2021/06/23 00:24:17;;;;;;;12.52;7.25;;;;;;;29.43;47.02;99225.19;4484230;32;33612;-65
2021/06/23 00:26:45;;;;;;;16.52;7.30;;;;;;;29.44;46.96;99224.91;4484248;32;33185;-65
2021/06/23 00:29:12;;;;;;;11.27;7.55;;;;;;;29.44;46.92;99224.91;4484296;32;34618;-65
2021/06/23 00:31:40;;;;;;;14.68;8.23;;;;;;;29.44;46.92;99235.06;4484412;32;34128;-65
2021/06/23 00:34:10;;;;;;;13.20;7.78;;;;;;;29.43;46.90;99231.50;4484131;32;33752;-65
2021/06/23 00:36:38;;;;;;;;;;;;;;;29.44;46.76;99227.66;4483016;32;34399;-65
2021/06/23 00:39:05;;;;;;;18.98;7.70;;;;;;;29.57;46.43;99236.44;4483262;32;34826;-65
2021/06/23 00:41:34;;;;;;;18.80;8.27;;;;;;;29.47;46.51;99229.84;4484101;32;33781;-65
2021/06/23 00:44:02;;;;;;;10.77;6.70;;;;;;;29.43;46.64;99231.50;4475099;32;33427;-65
2021/06/23 00:46:29;;;;;;;12.15;7.60;;;;;;;29.44;46.66;99224.06;4471449;32;33426;-65
2021/06/23 00:49:00;;;;;;;13.27;7.72;;;;;;;29.42;46.63;99235.31;4482842;32;33849;-65
2021/06/23 00:51:28;;;;;;;12.90;7.32;;;;;;;29.42;46.68;99232.59;4482327;32;34634;-64
2021/06/23 00:53:56;;;;;;;11.77;7.53;;;;;;;29.44;46.61;99233.13;4482841;32;33812;-66
2021/06/23 00:56:32;;;;;;;9.88;7.78;;;;;;;29.44;46.61;99230.41;4484080;32;33289;-65
2021/06/23 00:59:00;;;;;;;15.60;7.93;;;;;;;29.43;46.70;99233.44;4470484;32;33610;-65
2021/06/23 01:01:30;;;;;;;18.83;7.90;;;;;;;29.43;46.73;99244.41;4484221;32;33887;-65
2021/06/23 01:04:00;;;;;;;12.23;7.20;;;;;;;29.44;46.70;99240.56;4483991;32;35204;-65
2021/06/23 01:06:28;;;;;;;14.95;7.72;;;;;;;29.42;46.64;99232.59;4469946;32;33203;-65
2021/06/23 01:08:56;;;;;;;10.48;7.80;;;;;;;29.42;46.65;99232.59;4469654;32;34819;-65
2021/06/23 01:11:24;;;;;;;14.10;7.53;;;;;;;29.42;46.68;99234.50;4484021;32;33929;-65
2021/06/23 01:14:02;;;;;;;14.30;7.60;;;;;;;29.41;46.66;99233.69;4482828;32;33729;-65
2021/06/23 01:16:31;;;;;;;12.30;7.20;;;;;;;29.43;46.61;99227.94;4483918;32;33401;-66
2021/06/23 01:19:00;;;;;;;12.27;7.68;;;;;;;29.41;46.58;99233.69;4484014;32;33782;-65
2021/06/23 01:21:29;;;;;;;12.53;7.77;;;;;;;29.43;46.49;99236.19;4482911;32;34189;-64
2021/06/23 01:23:56;;;;;;;15.65;8.05;;;;;;;29.43;46.61;99233.44;4482870;32;33786;-66
2021/06/23 01:26:25;;;;;;;16.62;9.13;;;;;;;29.43;46.67;99233.44;4483693;32;34058;-65
2021/06/23 01:28:52;;;;;;;12.02;7.70;;;;;;;29.42;46.63;99229.84;4483968;32;33881;-65
2021/06/23 01:31:21;;;;;;;16.80;8.05;;;;;;;29.43;46.65;99230.69;4482547;32;33926;-65
2021/06/23 01:33:50;;;;;;;14.65;8.10;;;;;;;29.42;46.63;99240.00;4483800;32;33699;-65
2021/06/23 01:36:18;;;;;;;14.77;7.82;;;;;;;29.42;46.60;99238.06;4483934;32;33521;-65
2021/06/23 01:38:46;;;;;;;15.95;7.97;;;;;;;29.41;46.58;99228.19;4483737;32;33908;-65
2021/06/23 01:41:14;;;;;;;12.32;8.10;;;;;;;29.41;46.64;99235.62;4483849;32;34907;-65
2021/06/23 01:43:45;;;;;;;12.63;7.55;;;;;;;29.41;46.56;99241.13;4483852;32;34615;-65
2021/06/23 01:46:13;;;;;;;12.82;7.40;;;;;;;29.41;46.45;99238.37;4483447;32;33370;-66
2021/06/23 01:48:41;;;;;;;15.15;8.43;;;;;;;29.42;46.43;99234.50;4483771;32;33803;-65
2021/06/23 01:51:09;;;;;;;17.20;8.48;;;;;;;29.42;46.44;99243.56;4483397;32;34749;-65
2021/06/23 01:53:39;;;;;;;17.85;8.85;;;;;;;29.41;46.52;99241.94;4483055;32;33957;-64
2021/06/23 01:56:06;;;;;;;14.65;7.22;;;;;;;29.41;46.60;99241.13;4483329;32;33565;-65
2021/06/23 01:58:42;;;;;;;13.07;8.70;;;;;;;29.43;46.45;99244.41;4483360;32;34922;-65
2021/06/23 02:01:11;;;;;;;12.57;7.65;;;;;;;29.42;46.43;99251.00;4483492;32;33800;-65
2021/06/23 02:03:55;;;;;;;;;;;;;;;29.42;46.28;99243.56;4485108;32;33894;-65
2021/06/23 02:06:45;;;;;;;18.25;8.48;;;;;;;29.55;46.00;99242.19;4485277;32;33298;-65
2021/06/23 02:09:28;;;;;;;14.48;7.68;;;;;;;29.47;46.09;99253.72;4485130;32;34532;-64
2021/06/23 02:12:13;;;;;;;13.45;8.10;;;;;;;29.43;46.29;99255.41;4472248;32;33714;-65
2021/06/23 02:14:42;;;;;;;16.20;8.52;;;;;;;29.42;46.25;99251.00;4472525;32;34532;-66
2021/06/23 02:17:12;;;;;;;15.63;8.68;;;;;;;29.41;46.27;99263.09;4485470;32;34217;-65
2021/06/23 02:19:42;;;;;;;;;;;;;;;29.41;46.24;99269.41;4471624;32;34566;-65
2021/06/23 02:22:19;;;;;;;13.32;7.75;;;;;;;29.54;45.98;99264.44;4485487;32;33846;-65
2021/06/23 02:24:50;;;;;;;15.02;8.55;;;;;;;29.43;46.33;99272.72;4485300;32;33578;-66
2021/06/23 02:27:19;;;;;;;15.18;8.25;;;;;;;29.40;46.36;99273.28;4485181;32;33455;-65
2021/06/23 02:29:47;;;;;;;11.98;7.80;;;;;;;29.41;46.26;99274.09;4484056;32;33067;-65
2021/06/23 02:32:18;;;;;;;14.15;8.32;;;;;;;29.41;46.23;99276.84;4483854;32;33906;-65
2021/06/23 02:34:51;;;;;;;16.08;8.65;;;;;;;29.39;46.23;99277.13;4471447;32;34812;-64
2021/06/23 02:37:20;;;;;;;17.40;8.98;;;;;;;29.39;46.38;99282.63;4483977;32;33217;-64
2021/06/23 02:39:48;;;;;;;14.70;8.15;;;;;;;29.40;46.39;99280.69;4470663;32;33421;-66
2021/06/23 02:42:16;;;;;;;14.87;7.47;;;;;;;29.40;46.28;99273.28;4484136;32;33862;-65
2021/06/23 02:44:44;;;;;;;12.00;7.68;;;;;;;29.39;46.25;99282.63;4483863;32;35436;-64
2021/06/23 02:47:16;;;;;;;13.43;8.07;;;;;;;29.41;46.21;99290.59;4483704;32;34338;-65
2021/06/23 02:49:44;;;;;;;11.90;7.35;;;;;;;29.40;46.24;99281.53;4471668;32;33494;-65
2021/06/23 02:52:12;;;;;;;13.62;8.55;;;;;;;29.41;46.22;99287.84;4483700;32;34724;-64
2021/06/23 02:54:41;;;;;;;15.02;7.90;;;;;;;29.41;46.31;99291.41;4484846;32;34458;-65
2021/06/23 02:57:09;;;;;;;15.23;8.10;;;;;;;29.39;46.27;99285.37;4471185;32;33303;-65
2021/06/23 02:59:37;;;;;;;13.45;9.18;;;;;;;29.41;46.33;99291.41;4485036;32;33875;-64
2021/06/23 03:02:05;;;;;;;12.63;7.95;;;;;;;29.40;46.23;99295.25;4483817;32;33849;-65
2021/06/23 03:04:33;;;;;;;11.73;7.80;;;;;;;29.41;46.19;99293.34;4485127;32;34555;-66
2021/06/23 03:07:10;;;;;;;13.95;8.27;;;;;;;29.41;46.19;99290.59;4485146;32;33437;-66
2021/06/23 03:09:39;;;;;;;14.60;8.30;;;;;;;29.40;46.22;99294.44;4471094;32;34390;-65
2021/06/23 03:12:10;;;;;;;15.57;8.50;;;;;;;29.40;46.17;99291.69;4485035;32;33614;-65
2021/06/23 03:14:39;;;;;;;;;;;;;;;29.39;46.27;99298.31;4484892;32;33770;-65
2021/06/23 03:17:06;;;;;;;13.90;8.25;;;;;;;29.51;46.08;99295.22;4485057;32;32970;-65
2021/06/23 03:19:36;;;;;;;17.95;8.82;;;;;;;29.41;46.33;99293.34;4484976;32;33756;-65
2021/06/23 03:22:05;;;;;;;15.32;8.52;;;;;;;29.39;46.36;99295.56;4484503;32;34711;-65
2021/06/23 03:24:35;;;;;;;20.90;8.83;;;;;;;29.37;46.21;99297.75;4483406;32;33413;-65
2021/06/23 03:27:04;;;;;;;18.95;8.50;;;;;;;29.38;46.21;99302.16;4484946;32;34411;-65
2021/06/23 03:29:33;;;;;;;16.83;8.55;;;;;;;29.39;46.24;99307.37;4484545;32;33556;-66
2021/06/23 03:32:04;;;;;;;16.85;9.57;;;;;;;29.38;46.24;99308.47;4484623;32;34854;-65
2021/06/23 03:34:32;;;;;;;17.73;8.75;;;;;;;29.38;46.23;99305.72;4484594;32;33988;-64
2021/06/23 03:37:00;;;;;;;16.70;8.10;;;;;;;29.38;46.27;99307.66;4484639;32;33593;-64
2021/06/23 03:39:28;;;;;;;18.12;8.93;;;;;;;29.37;46.27;99309.56;4484670;32;34483;-65
2021/06/23 03:41:57;;;;;;;17.27;8.27;;;;;;;29.38;46.34;99310.41;4484354;32;33993;-65
2021/06/23 03:44:24;;;;;;;22.27;8.98;;;;;;;29.37;46.32;99319.72;4484546;32;33753;-65
2021/06/23 03:46:52;;;;;;;34.45;11.27;;;;;;;29.36;46.37;99318.91;4484330;32;33192;-70
2021/06/23 03:49:21;;;;;;;19.52;8.20;;;;;;;29.35;46.33;99313.69;4483189;32;33909;-64
2021/06/23 03:51:49;;;;;;;17.48;8.60;;;;;;;29.34;46.34;99315.63;4484827;32;33862;-64
2021/06/23 03:54:17;;;;;;;21.73;9.20;;;;;;;29.36;46.36;99321.66;4480326;31;33862;-64
2021/06/23 03:56:46;;;;;;;15.80;8.25;;;;;;;29.35;46.36;99322.75;4468894;32;33044;-64
2021/06/23 03:59:14;;;;;;;18.23;8.82;;;;;;;29.38;46.30;99324.16;4475170;32;33584;-64
2021/06/23 04:01:41;;;;;;;21.90;10.02;;;;;;;29.36;46.37;99326.31;4484292;32;33835;-65
2021/06/23 04:04:09;;;;;;;20.92;8.95;;;;;;;29.36;46.31;99318.91;4484533;32;33436;-63
2021/06/23 04:06:37;;;;;;;26.75;9.27;;;;;;;29.38;46.30;99332.38;4484422;32;34989;-65
2021/06/23 04:09:05;;;;;;;18.23;8.50;;;;;;;29.37;46.32;99322.47;4484436;32;33885;-65
2021/06/23 04:11:34;;;;;;;16.33;9.05;;;;;;;29.36;46.32;99324.41;4483979;32;33923;-64
2021/06/23 04:14:02;;;;;;;22.42;9.30;;;;;;;29.37;46.20;99325.22;4484311;32;33829;-64
2021/06/23 04:16:31;;;;;;;16.52;9.25;;;;;;;29.38;46.14;99324.16;4484309;32;33874;-64
2021/06/23 04:19:02;;;;;;;15.70;8.45;;;;;;;29.37;46.14;99327.97;4484025;32;33784;-65
2021/06/23 04:21:31;;;;;;;17.67;8.82;;;;;;;29.39;46.09;99334.03;4484063;32;33923;-65
2021/06/23 04:23:59;;;;;;;16.90;8.85;;;;;;;29.38;46.31;99326.88;4468285;32;34608;-65
2021/06/23 04:26:27;;;;;;;18.30;8.95;;;;;;;29.37;46.36;99328.78;4466597;32;33490;-65
2021/06/23 04:28:54;;;;;;;15.57;8.93;;;;;;;29.37;46.29;99325.22;4468393;32;33849;-64
2021/06/23 04:31:22;;;;;;;16.90;9.60;;;;;;;29.37;46.45;99333.47;4468507;32;34563;-66
2021/06/23 04:33:51;;;;;;;15.38;8.27;;;;;;;29.37;46.42;99341.72;4468603;32;35156;-64
2021/06/23 04:36:18;;;;;;;18.92;9.13;;;;;;;29.37;46.45;99338.97;4468444;32;33161;-67
2021/06/23 04:38:46;;;;;;;16.48;9.52;;;;;;;29.38;46.49;99341.44;4467356;32;33802;-67
2021/06/23 04:41:14;;;;;;;21.60;9.57;;;;;;;29.38;46.47;99337.87;4480065;32;33778;-68
2021/06/23 04:43:42;;;;;;;23.67;9.32;;;;;;;29.39;46.51;99336.78;4482811;32;33443;-68
2021/06/23 04:46:12;;;;;;;23.65;10.00;;;;;;;29.39;46.53;99340.34;4483654;32;33599;-69
2021/06/23 04:48:40;;;;;;;21.62;9.90;;;;;;;29.39;46.53;99340.34;4482748;32;34905;-68
2021/06/23 04:51:11;;;;;;;20.08;9.80;;;;;;;29.39;46.46;99343.09;4484278;32;33901;-67
2021/06/23 04:53:39;;;;;;;23.15;9.82;;;;;;;29.39;46.39;99342.28;4483765;32;33680;-68
2021/06/23 04:56:08;;;;;;;22.33;9.30;;;;;;;29.40;46.35;99346.66;4482887;32;33348;-68
2021/06/23 04:58:37;;;;;;;21.40;9.35;;;;;;;29.38;46.34;99340.63;4484081;32;34962;-70
2021/06/23 05:01:06;;;;;;;23.40;8.57;;;;;;;29.39;46.38;99342.28;4483074;32;34902;-69
2021/06/23 05:03:34;;;;;;;22.20;9.95;;;;;;;29.39;46.39;99343.09;4483912;32;34711;-68
2021/06/23 05:06:01;;;;;;;17.95;8.70;;;;;;;29.38;46.39;99352.44;4483262;32;33219;-69
2021/06/23 05:08:29;;;;;;;17.10;8.55;;;;;;;29.38;46.40;99351.63;4482522;32;34431;-67
2021/06/23 05:10:57;;;;;;;25.40;9.40;;;;;;;29.37;46.41;99348.03;4483899;32;34013;-69
2021/06/23 05:13:25;;;;;;;17.92;8.88;;;;;;;29.38;46.38;99354.38;4482511;32;33773;-68
2021/06/23 05:15:54;;;;;;;17.25;8.73;;;;;;;29.37;46.34;99361.75;4481435;32;33326;-69
2021/06/23 05:18:22;;;;;;;21.23;8.88;;;;;;;29.38;46.27;99362.63;4475528;32;33739;-66
2021/06/23 05:20:50;;;;;;;16.62;8.65;;;;;;;29.39;46.17;99361.50;4482800;32;34055;-68
2021/06/23 05:23:17;;;;;;;15.07;9.00;;;;;;;29.39;46.11;99361.50;4483676;32;33736;-69
2021/06/23 05:25:45;;;;;;;14.63;8.57;;;;;;;29.37;46.04;99370.00;4479678;32;33015;-68
2021/06/23 05:28:13;;;;;;;20.77;9.35;;;;;;;29.38;45.97;99368.94;4483715;32;33594;-68
2021/06/23 05:30:40;;;;;;;18.60;8.00;;;;;;;29.38;45.97;99368.13;4482566;32;33834;-67
2021/06/23 05:33:08;;;;;;;12.77;8.50;;;;;;;29.37;46.03;99370.00;4482439;32;33745;-68
2021/06/23 05:35:35;;;;;;;19.83;8.77;;;;;;;29.38;45.96;99373.63;4482677;32;33580;-70
2021/06/23 05:38:03;;;;;;;14.95;8.10;;;;;;;29.37;45.87;99372.75;4482158;32;33633;-69
2021/06/23 05:40:31;;;;;;;13.48;8.43;;;;;;;29.38;45.88;99379.09;4483550;32;33928;-71
2021/06/23 05:42:58;;;;;;;13.15;8.60;;;;;;;29.37;45.93;99381.00;4483402;32;33791;-71
2021/06/23 05:45:26;;;;;;;15.85;8.13;;;;;;;29.37;45.89;99380.19;4483557;32;33352;-70
2021/06/23 05:47:54;;;;;;;12.73;8.25;;;;;;;29.37;45.79;99375.50;4483500;32;33852;-70
2021/06/23 05:50:21;;;;;;;16.10;8.60;;;;;;;29.37;45.73;99385.69;4483278;32;33621;-71
2021/06/23 05:52:49;;;;;;;15.02;7.85;;;;;;;29.38;45.71;99390.09;4483597;32;34025;-71
2021/06/23 05:55:21;;;;;;;14.02;8.13;;;;;;;29.39;45.67;99386.25;4483279;32;32731;-72
2021/06/23 05:57:50;;;;;;;16.40;7.82;;;;;;;29.38;45.69;99387.34;4483093;32;33761;-71
2021/06/23 06:00:19;;;;;;;12.37;8.18;;;;;;;29.37;45.72;99383.75;4483315;32;33996;-71
2021/06/23 06:02:47;;;;;;;13.77;8.10;;;;;;;29.38;45.66;99387.34;4481931;32;33932;-70
2021/06/23 06:05:15;;;;;;;13.65;8.20;;;;;;;29.38;45.64;99388.16;4481841;32;34526;-71
2021/06/23 06:07:42;;;;;;;13.77;7.65;;;;;;;29.37;45.66;99389.25;4483160;32;33814;-71
2021/06/23 06:10:11;;;;;;;14.32;7.47;;;;;;;29.36;45.67;99390.34;4483303;32;34883;-71
2021/06/23 06:12:38;;;;;;;14.77;8.15;;;;;;;29.36;45.71;99398.59;4482930;32;34651;-70
2021/06/23 06:15:06;;;;;;;14.87;8.18;;;;;;;29.37;45.72;99393.94;4483293;32;33204;-70
2021/06/23 06:17:34;;;;;;;16.12;8.60;;;;;;;29.36;45.71;99395.03;4481800;32;33776;-70
2021/06/23 06:20:04;;;;;;;15.10;7.82;;;;;;;29.36;45.75;99401.34;4482796;32;34597;-71
2021/06/23 06:22:32;;;;;;;12.82;6.97;;;;;;;29.36;45.73;99406.84;4483036;32;34776;-71
2021/06/23 06:25:00;;;;;;;13.90;8.20;;;;;;;29.37;45.71;99408.50;4482720;31;34292;-70
2021/06/23 06:27:28;;;;;;;13.13;8.20;;;;;;;29.36;45.72;99404.09;4482933;32;34835;-69
2021/06/23 06:29:55;;;;;;;13.70;7.43;;;;;;;29.36;45.71;99404.09;4482770;32;34734;-71
2021/06/23 06:32:23;;;;;;;13.43;8.10;;;;;;;29.36;45.68;99415.09;4482583;32;34735;-69
2021/06/23 06:34:50;;;;;;;11.35;7.80;;;;;;;29.36;45.64;99411.53;4482824;32;34294;-70
2021/06/23 06:37:18;;;;;;;13.00;7.78;;;;;;;29.37;45.63;99407.66;4481626;32;33510;-70
2021/06/23 06:39:46;;;;;;;10.52;7.87;;;;;;;29.36;45.65;99417.03;4482560;32;34452;-70
2021/06/23 06:42:13;;;;;;;13.02;8.27;;;;;;;29.35;45.61;99405.19;4481548;32;33395;-70
2021/06/23 06:44:41;;;;;;;10.80;7.85;;;;;;;29.35;45.56;99410.69;4482725;32;33859;-69
2021/06/23 06:47:11;;;;;;;14.68;7.97;;;;;;;29.35;45.57;99416.19;4481880;32;33502;-69
2021/06/23 06:49:38;;;;;;;12.37;7.37;;;;;;;29.35;45.57;99418.94;4482118;32;34071;-69
2021/06/23 06:52:06;;;;;;;8.77;6.78;;;;;;;29.35;45.55;99418.12;4484304;32;33476;-69
2021/06/23 06:54:34;;;;;;;10.35;6.78;;;;;;;29.36;45.54;99419.75;4484737;32;33517;-69
2021/06/23 06:57:02;;;;;;;14.45;7.45;;;;;;;29.36;45.50;99422.50;4484822;32;33552;-69
2021/06/23 06:59:30;;;;;;;13.60;8.07;;;;;;;29.36;45.49;99426.09;4484866;32;34695;-68
2021/06/23 07:01:58;;;;;;;11.52;7.95;;;;;;;29.36;45.46;99428.84;4484736;32;33646;-69
2021/06/23 07:04:25;;;;;;;13.77;7.60;;;;;;;29.37;45.38;99433.22;4484730;32;33933;-68
2021/06/23 07:06:53;;;;;;;11.88;7.95;;;;;;;29.37;45.34;99435.97;4484882;32;34798;-69
2021/06/23 07:09:21;;;;;;;12.70;7.47;;;;;;;29.38;45.36;99445.06;4484464;32;34696;-69
2021/06/23 07:11:49;;;;;;;12.52;8.13;;;;;;;29.39;45.39;99441.22;4484726;32;34753;-70
2021/06/23 07:14:18;;;;;;;8.98;7.00;;;;;;;29.40;45.37;99446.44;4484974;32;33294;-68
2021/06/23 07:16:46;;;;;;;10.73;7.37;;;;;;;29.40;45.38;99443.69;4483202;32;33909;-68
2021/06/23 07:19:13;;;;;;;12.65;7.50;;;;;;;29.41;45.39;99445.31;4484709;32;33859;-69
2021/06/23 07:21:42;;;;;;;12.05;7.57;;;;;;;29.42;45.41;99446.13;4484654;32;34214;-69
2021/06/23 07:24:11;;;;;;;12.98;8.00;;;;;;;29.42;45.39;99440.62;4484553;31;33008;-68
2021/06/23 07:26:39;;;;;;;13.65;7.65;;;;;;;29.43;45.36;99445.06;4484625;32;33882;-68
2021/06/23 07:29:06;;;;;;;13.15;7.45;;;;;;;29.44;45.31;99444.78;4484883;32;33651;-68
2021/06/23 07:36:30;;;;;;;10.70;7.82;;;;;;;29.44;45.31;99447.53;4482049;32;34078;-68
2021/06/23 07:37:09;;;;;;;10.10;7.18;;;;;;;29.45;45.30;99440.09;4483530;32;34767;-69
2021/06/23 07:39:36;;;;;;;10.52;7.00;;;;;;;29.46;45.27;99437.06;4484608;32;33827;-68
2021/06/23 07:42:05;;;;;;;11.88;6.78;;;;;;;29.47;45.29;99440.62;4483153;32;34024;-68
2021/06/23 07:44:44;;;;;;;10.23;6.72;;;;;;;29.46;45.28;99445.31;4484621;32;33563;-68
2021/06/23 07:47:21;;;;;;;13.70;7.35;;;;;;;29.46;45.28;99445.31;4484365;32;34003;-68
2021/06/23 07:49:49;;;;;;;12.27;7.60;;;;;;;29.48;45.25;99437.63;4483617;32;33518;-68
2021/06/23 07:52:26;;;;;;;10.90;6.80;;;;;;;29.48;45.24;99442.31;4484539;32;34527;-68
2021/06/23 07:55:03;;;;;;;9.50;6.87;;;;;;;29.48;45.25;99445.06;4479952;32;33033;-67
2021/06/23 08:11:15;;;;;;;10.68;7.32;;;;;;;29.49;45.22;99454.94;4484378;32;33936;-69
2021/06/23 08:13:43;;;;;;;13.02;6.93;;;;;;;29.49;45.22;99455.78;4484142;32;34893;-68
2021/06/23 08:16:11;;;;;;;12.15;7.03;;;;;;;29.49;45.17;99461.25;4483007;32;33248;-68
2021/06/23 08:18:39;;;;;;;9.65;7.60;;;;;;;29.49;45.17;99457.69;4483727;32;34715;-70
2021/06/23 08:21:06;;;;;;;9.63;6.87;;;;;;;29.49;45.15;99453.03;4484142;32;34268;-70
2021/06/23 08:23:34;;;;;;;9.48;6.47;;;;;;;29.50;45.16;99462.09;4484433;32;34325;-68
2021/06/23 08:26:02;;;;;;;9.05;6.40;;;;;;;29.51;45.15;99460.16;4484168;32;33347;-67
2021/06/23 08:28:29;;;;;;;10.50;6.57;;;;;;;29.50;45.13;99459.34;4484196;32;33264;-69
2021/06/23 08:30:57;;;;;;;11.02;6.70;;;;;;;29.49;45.12;99457.69;4483117;32;33307;-70
2021/06/23 08:33:25;;;;;;;11.30;6.97;;;;;;;29.50;45.10;99464.84;4483070;32;33829;-69
2021/06/23 08:35:53;;;;;;;9.50;6.45;;;;;;;29.50;45.08;99462.09;4484087;32;34658;-70
2021/06/23 08:38:21;;;;;;;10.05;6.75;;;;;;;29.52;45.07;99459.06;4482830;32;33444;-70
2021/06/23 08:40:49;;;;;;;10.45;6.93;;;;;;;29.51;45.06;99460.16;4484008;32;34775;-69
2021/06/23 08:43:18;;;;;;;9.75;6.90;;;;;;;29.51;45.08;99463.72;4470069;32;34447;-71
2021/06/23 08:45:46;;;;;;;10.48;6.62;;;;;;;29.49;45.12;99466.75;4482943;32;33109;-71
2021/06/23 08:48:13;;;;;;;10.48;6.80;;;;;;;29.52;45.10;99459.91;4483994;32;34873;-70
2021/06/23 08:50:41;;;;;;;9.38;6.87;;;;;;;29.51;45.14;99458.22;4483349;32;34626;-70
2021/06/23 08:53:09;;;;;;;11.93;6.47;;;;;;;29.51;45.14;99465.66;4482906;32;33707;-70
2021/06/23 08:55:37;;;;;;;11.57;6.55;;;;;;;29.51;45.10;99466.47;4483900;32;33461;-69
2021/06/23 08:58:05;;;;;;;9.35;6.57;;;;;;;29.52;45.13;99467.31;4483917;32;34540;-70
2021/06/23 09:00:33;;;;;;;11.73;7.03;;;;;;;29.51;45.14;99473.91;4482827;32;34955;-69
2021/06/23 09:03:02;;;;;;;12.68;7.25;;;;;;;29.52;45.18;99467.31;4483812;32;33808;-68
2021/06/23 09:06:00;;;;;;;9.77;6.70;;;;;;;29.51;45.14;99473.91;4484265;32;33303;-68
2021/06/23 09:08:37;;;;;;;10.45;7.15;;;;;;;29.56;45.04;99469.25;4473031;31;33487;-64
2021/06/23 09:11:15;;;;;;;14.23;7.75;;;;;;;29.54;45.04;99471.44;4482057;32;33873;-71
2021/06/23 09:13:43;;;;;;;13.68;7.90;;;;;;;29.54;45.85;99476.13;4482388;32;34665;-65
2021/06/23 09:16:11;;;;;;;15.05;9.15;;;;;;;29.52;46.55;99470.91;4483846;32;34394;-67
2021/06/23 09:18:42;;;;;;;21.05;8.45;;;;;;;29.53;46.95;99475.28;4482518;32;35360;-67
2021/06/23 09:21:18;;;;;;;15.38;7.95;;;;;;;29.54;46.91;99482.44;4483755;32;33792;-67
2021/06/23 09:23:46;;;;;;;13.45;8.45;;;;;;;29.57;46.72;99481.09;4483109;31;34980;-69
2021/06/23 09:26:21;;;;;;;15.80;7.80;;;;;;;29.57;46.54;99483.84;4482391;32;34330;-70
2021/06/23 09:29:08;;;;;;;13.68;7.28;;;;;;;29.60;46.39;99480.53;4483532;32;33877;-70
2021/06/23 09:31:56;;;;;;;13.88;8.00;;;;;;;29.62;46.26;99479.16;4483784;32;33942;-69
2021/06/23 09:34:25;;;;;;;16.50;7.55;;;;;;;29.62;46.20;99489.34;4483716;32;34481;-71
2021/06/23 09:36:53;;;;;;;17.27;7.70;;;;;;;29.62;46.16;99489.34;4481068;32;34401;-70
2021/06/23 09:39:25;;;;;;;12.80;7.70;;;;;;;29.62;46.14;99484.66;4483498;32;33868;-71
2021/06/23 09:41:56;;;;;;;13.82;7.75;;;;;;;29.63;46.05;99482.75;4483094;32;34850;-68
2021/06/23 09:44:26;;;;;;;11.35;7.25;;;;;;;29.65;46.01;99478.59;4483376;32;33753;-69
2021/06/23 09:46:54;;;;;;;15.07;7.37;;;;;;;29.66;45.96;99488.53;4482627;32;33023;-68
2021/06/23 09:49:23;;;;;;;18.70;7.60;;;;;;;29.69;45.97;99485.19;4483038;32;33869;-70
2021/06/23 09:52:13;;;;;;;15.38;7.57;;;;;;;29.67;46.13;99495.66;4478597;32;33916;-70
2021/06/23 09:54:47;;;;;;;;;;;;;;;29.71;46.12;99494.00;4476177;32;34534;-73
2021/06/23 09:57:15;;;;;;;16.12;7.35;;;;;;;29.85;45.73;99485.22;4483424;32;34045;-71
2021/06/23 09:59:49;;;;;;;17.65;7.90;;;;;;;29.74;46.07;99495.38;4483180;32;33768;-69
2021/06/23 10:02:30;;;;;;;15.40;7.12;;;;;;;29.72;46.12;99495.66;4479429;32;33761;-70
2021/06/23 10:04:59;;;;;;;17.02;7.72;;;;;;;29.76;46.08;99490.44;4466676;32;34348;-68
2021/06/23 10:07:40;;;;;;;20.95;7.57;;;;;;;29.76;46.13;99497.87;4466238;32;33897;-72
2021/06/23 10:10:08;;;;;;;16.42;7.62;;;;;;;29.79;46.10;99494.53;4467766;32;33992;-69
2021/06/23 10:12:36;;;;;;;12.18;7.28;;;;;;;29.77;46.14;99497.56;4467482;32;33837;-68
2021/06/23 10:15:05;;;;;;;18.12;7.50;;;;;;;29.79;46.18;99491.78;4468604;32;33931;-69
2021/06/23 10:17:33;;;;;;;12.68;7.28;;;;;;;29.78;46.23;99495.66;4482999;32;33563;-68
2021/06/23 10:20:00;;;;;;;12.45;6.80;;;;;;;29.80;46.25;99499.78;4482873;32;34616;-68
2021/06/23 10:22:28;;;;;;;20.62;8.15;;;;;;;29.84;46.15;99497.28;4483083;32;33820;-68
2021/06/23 10:24:56;;;;;;;14.63;7.75;;;;;;;29.83;46.14;99501.97;4470453;32;33752;-68
2021/06/23 10:27:24;;;;;;;15.57;7.87;;;;;;;29.83;45.98;99499.22;4471182;32;34219;-68
2021/06/23 10:29:53;;;;;;;17.45;8.07;;;;;;;29.85;45.94;99501.72;4484958;32;34631;-67
2021/06/23 10:32:21;;;;;;;15.55;7.20;;;;;;;29.83;45.93;99504.72;4474912;32;34136;-68
2021/06/23 10:34:48;;;;;;;16.98;7.37;;;;;;;29.83;45.91;99499.22;4470988;32;34105;-68
2021/06/23 10:37:16;;;;;;;14.77;7.30;;;;;;;29.82;45.92;99497.56;4484935;32;34396;-68
2021/06/23 10:39:45;;;;;;;16.62;7.12;;;;;;;29.81;45.87;99498.69;4457801;32;34530;-68
2021/06/23 10:42:13;;;;;;;12.73;7.50;;;;;;;29.82;45.77;99491.25;4457948;32;33790;-68
2021/06/23 10:44:46;;;;;;;17.50;7.45;;;;;;;29.82;45.75;99500.31;4476476;32;33785;-68
2021/06/23 10:47:37;;;;;;;16.90;7.45;;;;;;;29.81;45.76;99503.34;4484870;32;33809;-68
2021/06/23 10:50:16;;;;;;;13.68;8.23;;;;;;;29.82;45.77;99496.75;4478944;32;33787;-69
2021/06/23 10:52:45;;;;;;;13.07;6.80;;;;;;;29.81;45.76;99500.59;4484904;32;33843;-69
2021/06/23 10:55:21;;;;;;;11.27;6.62;;;;;;;29.80;45.79;99496.19;4470739;32;34847;-68
2021/06/23 10:57:52;;;;;;;14.25;7.07;;;;;;;29.81;45.79;99493.19;4484708;32;34189;-68
2021/06/23 11:00:21;;;;;;;11.90;7.27;;;;;;;29.79;45.84;99500.88;4480258;32;33895;-68
2021/06/23 11:02:51;;;;;;;18.33;6.55;;;;;;;29.81;45.83;99497.84;4469119;32;33796;-68
2021/06/23 11:05:20;;;;;;;14.87;6.32;;;;;;;29.82;45.82;99492.06;4467691;32;33622;-68
2021/06/23 11:07:53;;;;;;;11.73;6.85;;;;;;;29.81;45.85;99495.94;4470385;32;33590;-68
2021/06/23 11:10:26;;;;;;;13.25;7.22;;;;;;;29.80;45.90;99497.03;4484612;32;34606;-68
2021/06/23 11:13:00;;;;;;;13.00;7.03;;;;;;;29.81;45.92;99493.19;4483044;32;34646;-68
2021/06/23 11:15:31;;;;;;;16.95;7.43;;;;;;;29.81;45.93;99498.69;4467774;32;33748;-68
2021/06/23 11:18:22;;;;;;;18.27;7.70;;;;;;;29.81;45.97;99504.19;4468732;32;34007;-68
2021/06/23 11:20:54;;;;;;;15.32;6.90;;;;;;;29.87;45.87;99496.75;4468935;32;33886;-67
2021/06/23 11:23:42;;;;;;;10.85;6.80;;;;;;;29.85;46.00;99504.47;4479854;31;34792;-68
2021/06/23 11:26:29;;;;;;;12.55;6.75;;;;;;;29.87;45.90;99505.81;4484176;32;34667;-68
2021/06/23 11:29:10;;;;;;;14.05;6.70;;;;;;;29.88;45.91;99509.38;4484544;32;34018;-68
2021/06/23 11:31:59;;;;;;;11.05;6.87;;;;;;;29.86;45.91;99506.91;4484589;32;34564;-68
2021/06/23 11:34:37;;;;;;;10.63;6.70;;;;;;;29.86;45.94;99506.91;4483206;32;33792;-68
2021/06/23 11:37:12;;;;;;;11.30;7.25;;;;;;;29.87;45.94;99510.50;4484388;32;33745;-68
2021/06/23 11:39:39;;;;;;;10.50;6.32;;;;;;;29.86;45.98;99515.19;4483289;32;32989;-68
2021/06/23 11:42:07;;;;;;;10.82;7.03;;;;;;;29.85;46.01;99513.53;4483271;32;33727;-68
2021/06/23 11:44:37;;;;;;;11.30;6.85;;;;;;;29.86;46.04;99517.94;4484499;32;34009;-67
2021/06/23 11:47:05;;;;;;;18.70;6.85;;;;;;;29.86;46.06;99522.59;4477170;32;33706;-68
2021/06/23 11:49:49;;;;;;;9.65;6.30;;;;;;;29.87;46.04;99516.00;4484608;32;33449;-68
2021/06/23 11:52:16;;;;;;;12.50;6.55;;;;;;;29.87;46.12;99518.75;4484517;32;33739;-69
2021/06/23 11:54:44;;;;;;;13.62;6.40;;;;;;;29.85;46.20;99523.72;4470267;32;33731;-69
2021/06/23 11:57:11;;;;;;;15.35;6.50;;;;;;;29.85;46.16;99516.28;4470207;32;34045;-69